Time;durP1;ratioP1;P1;durP2;ratioP2;P2;SDS_P1;SDS_P2;PMS_P1;PMS_P2;Temp;Humidity;BMP_temperature;BMP_pressure;BME280_temperature;BME280_humidity;BME280_pressure;Samples;Min_cycle;Max_cycle;Signal;HPM_P1;HPM_P2
2024/02/29 00:00:41;;;;;;;35.15;15.63;;;;;;;;;;4955398;29;20142;-80
2024/02/29 00:03:08;;;;;;;32.47;16.15;;;;;;;;;;4955642;29;20051;-81
2024/02/29 00:05:39;;;;;;;36.60;16.27;;;;;;;;;;4948051;28;20063;-82
2024/02/29 00:08:06;;;;;;;30.73;17.17;;;;;;;;;;4967050;28;20116;-82
2024/02/29 00:10:33;;;;;;;31.58;17.10;;;;;;;;;;4965819;28;20079;-82
2024/02/29 00:12:59;;;;;;;31.38;14.77;;;;;;;;;;4948226;29;20454;-82
2024/02/29 00:15:28;;;;;;;33.83;18.40;;;;;;;;;;4950534;28;20055;-81
2024/02/29 00:17:56;;;;;;;35.10;17.48;;;;;;;;;;4943340;28;20090;-81
2024/02/29 00:20:23;;;;;;;30.77;15.50;;;;;;;;;;4967426;28;20074;-82
2024/02/29 00:22:50;;;;;;;35.13;17.27;;;;;;;;;;4961740;28;20059;-79
2024/02/29 00:25:17;;;;;;;34.60;16.35;;;;;;;;;;4947005;28;20055;-82
2024/02/29 00:27:43;;;;;;;36.22;17.25;;;;;;;;;;4939249;29;20051;-79
2024/02/29 00:30:10;;;;;;;30.13;15.38;;;;;;;;;;4970542;28;20051;-81
2024/02/29 00:32:37;;;;;;;31.27;16.65;;;;;;;;;;4956811;29;20078;-82
2024/02/29 00:35:04;;;;;;;32.15;15.85;;;;;;;;;;4943013;29;20465;-81
2024/02/29 00:37:31;;;;;;;34.28;16.63;;;;;;;;;;4958049;28;20219;-82
2024/02/29 00:39:58;;;;;;;35.38;16.33;;;;;;;;;;4938094;29;20426;-82
2024/02/29 00:42:25;;;;;;;33.25;16.33;;;;;;;;;;4955285;29;20085;-82
2024/02/29 00:44:51;;;;;;;32.05;16.90;;;;;;;;;;4954885;29;20486;-82
2024/02/29 00:47:18;;;;;;;30.20;16.20;;;;;;;;;;4941503;29;20059;-81
2024/02/29 00:49:45;;;;;;;34.47;17.40;;;;;;;;;;4957673;29;20498;-81
2024/02/29 00:52:11;;;;;;;32.75;16.23;;;;;;;;;;4938272;29;20052;-82
2024/02/29 00:54:39;;;;;;;31.83;17.23;;;;;;;;;;4939830;29;20122;-81
2024/02/29 00:57:08;;;;;;;34.50;17.83;;;;;;;;;;4944838;29;20051;-81
2024/02/29 00:59:37;;;;;;;35.80;17.38;;;;;;;;;;4945798;29;20295;-83
2024/02/29 01:02:03;;;;;;;32.67;16.90;;;;;;;;;;4961051;28;20055;-82
2024/02/29 01:04:30;;;;;;;37.05;18.10;;;;;;;;;;4958709;28;20047;-84
2024/02/29 01:06:57;;;;;;;32.88;17.38;;;;;;;;;;4949199;29;20048;-84
2024/02/29 01:09:27;;;;;;;33.75;17.67;;;;;;;;;;4964013;28;20085;-84
2024/02/29 01:11:54;;;;;;;33.35;16.50;;;;;;;;;;4939585;29;20403;-81
2024/02/29 01:14:21;;;;;;;36.50;17.33;;;;;;;;;;4960667;28;20109;-83
2024/02/29 01:16:48;;;;;;;36.50;17.63;;;;;;;;;;4939551;29;20074;-83
2024/02/29 01:19:15;;;;;;;34.78;17.05;;;;;;;;;;4971558;28;20470;-82
2024/02/29 01:21:42;;;;;;;35.97;17.25;;;;;;;;;;4953416;28;20494;-83
2024/02/29 01:24:08;;;;;;;35.60;17.27;;;;;;;;;;4973276;28;20054;-83
2024/02/29 01:26:35;;;;;;;33.47;17.27;;;;;;;;;;4965556;28;20047;-83
2024/02/29 01:29:02;;;;;;;36.25;17.27;;;;;;;;;;4976925;28;20047;-82
2024/02/29 01:31:28;;;;;;;35.70;16.25;;;;;;;;;;4974115;28;20043;-82
2024/02/29 01:33:55;;;;;;;34.13;16.70;;;;;;;;;;4961550;28;20486;-83
2024/02/29 01:36:22;;;;;;;33.35;16.95;;;;;;;;;;4993364;28;20102;-83
2024/02/29 01:38:49;;;;;;;35.50;17.20;;;;;;;;;;4980593;28;20059;-81
2024/02/29 01:41:18;;;;;;;31.90;15.13;;;;;;;;;;4978344;28;20106;-82
2024/02/29 01:43:54;;;;;;;32.55;15.88;;;;;;;;;;4974219;28;20059;-82
2024/02/29 01:46:21;;;;;;;34.22;17.00;;;;;;;;;;4976631;28;20075;-81
2024/02/29 01:48:50;;;;;;;33.35;17.17;;;;;;;;;;4961284;28;20091;-82
2024/02/29 01:51:17;;;;;;;37.63;17.08;;;;;;;;;;4985958;28;20082;-83
2024/02/29 01:53:44;;;;;;;32.20;15.93;;;;;;;;;;4977235;28;20473;-83
2024/02/29 01:56:11;;;;;;;35.63;18.10;;;;;;;;;;4957418;28;20098;-83
2024/02/29 01:58:37;;;;;;;36.65;17.15;;;;;;;;;;4968151;28;20436;-82
2024/02/29 02:01:04;;;;;;;34.05;17.55;;;;;;;;;;4968266;28;20050;-83
2024/02/29 02:03:31;;;;;;;32.72;15.70;;;;;;;;;;4981568;28;20084;-83
2024/02/29 02:05:58;;;;;;;43.45;18.00;;;;;;;;;;4964543;28;20059;-84
2024/02/29 02:08:27;;;;;;;31.88;16.27;;;;;;;;;;4954757;28;20051;-84
2024/02/29 02:10:54;;;;;;;39.97;18.45;;;;;;;;;;4939073;29;20122;-83
2024/02/29 02:13:21;;;;;;;40.13;18.38;;;;;;;;;;4944338;28;20065;-82
2024/02/29 02:15:48;;;;;;;37.75;18.20;;;;;;;;;;4958027;28;20051;-82
2024/02/29 02:18:15;;;;;;;40.67;17.48;;;;;;;;;;4954935;29;20501;-81
2024/02/29 02:20:41;;;;;;;36.85;16.90;;;;;;;;;;4939178;29;20051;-82
2024/02/29 02:23:08;;;;;;;35.13;15.98;;;;;;;;;;4958889;28;20515;-81
2024/02/29 02:25:35;;;;;;;38.00;17.10;;;;;;;;;;4971573;28;20054;-80
2024/02/29 02:28:01;;;;;;;38.42;17.80;;;;;;;;;;4940260;28;20043;-81
2024/02/29 02:30:28;;;;;;;38.40;18.48;;;;;;;;;;4960942;28;20043;-80
2024/02/29 02:32:55;;;;;;;36.35;17.02;;;;;;;;;;4975061;28;20054;-81
2024/02/29 02:35:21;;;;;;;35.60;17.95;;;;;;;;;;4958481;28;20054;-81
2024/02/29 02:37:51;;;;;;;37.78;17.15;;;;;;;;;;4958295;28;20059;-81
2024/02/29 02:40:18;;;;;;;45.78;19.40;;;;;;;;;;4939807;28;20055;-81
2024/02/29 02:42:45;;;;;;;31.35;16.33;;;;;;;;;;4954262;28;20062;-79
2024/02/29 02:45:12;;;;;;;31.50;16.05;;;;;;;;;;4959990;28;20477;-83
2024/02/29 02:47:39;;;;;;;31.60;17.20;;;;;;;;;;4977196;28;20055;-85
2024/02/29 02:50:05;;;;;;;34.80;16.83;;;;;;;;;;4972142;28;20061;-81
2024/02/29 02:52:32;;;;;;;35.47;17.35;;;;;;;;;;4956221;28;20051;-82
2024/02/29 02:54:59;;;;;;;37.17;17.33;;;;;;;;;;4970777;28;20518;-82
2024/02/29 02:57:26;;;;;;;37.50;17.23;;;;;;;;;;4939843;29;20047;-80
2024/02/29 02:59:52;;;;;;;29.60;16.75;;;;;;;;;;4955962;28;20087;-80
2024/02/29 03:02:19;;;;;;;33.75;16.80;;;;;;;;;;4975834;28;20081;-79
2024/02/29 03:04:46;;;;;;;36.03;16.55;;;;;;;;;;4940636;29;20506;-79
2024/02/29 03:07:12;;;;;;;37.95;16.85;;;;;;;;;;4956056;29;20145;-79
2024/02/29 03:09:39;;;;;;;37.65;19.02;;;;;;;;;;4960556;28;20054;-83
2024/02/29 03:12:07;;;;;;;34.15;16.35;;;;;;;;;;4961143;28;20054;-82
2024/02/29 03:14:33;;;;;;;40.00;17.38;;;;;;;;;;4960030;28;20047;-82
2024/02/29 03:17:00;;;;;;;39.58;17.48;;;;;;;;;;4977968;28;20054;-82
2024/02/29 03:19:27;;;;;;;36.97;16.10;;;;;;;;;;4967391;28;20062;-82
2024/02/29 03:21:53;;;;;;;35.90;17.30;;;;;;;;;;4957808;28;20564;-80
2024/02/29 03:24:21;;;;;;;39.83;17.75;;;;;;;;;;4959099;28;20069;-81
2024/02/29 03:26:47;;;;;;;40.10;17.73;;;;;;;;;;4954830;29;20066;-82
2024/02/29 03:29:14;;;;;;;33.20;16.65;;;;;;;;;;4955163;29;20098;-82
2024/02/29 03:31:48;;;;;;;36.85;17.42;;;;;;;;;;4954995;29;20051;-81
2024/02/29 03:34:15;;;;;;;42.78;19.23;;;;;;;;;;4955779;28;20083;-80
2024/02/29 03:36:42;;;;;;;36.28;17.17;;;;;;;;;;4955495;28;20127;-82
2024/02/29 03:39:09;;;;;;;38.35;17.33;;;;;;;;;;4968528;28;20066;-82
2024/02/29 03:41:35;;;;;;;39.78;17.77;;;;;;;;;;4954614;29;20051;-82
2024/02/29 03:44:02;;;;;;;38.95;17.98;;;;;;;;;;4972443;28;20051;-82
2024/02/29 03:46:28;;;;;;;38.72;17.40;;;;;;;;;;4971218;28;20561;-80
2024/02/29 03:48:55;;;;;;;40.00;18.08;;;;;;;;;;4950100;29;20086;-81
2024/02/29 03:51:22;;;;;;;39.53;18.30;;;;;;;;;;4960000;29;20156;-81
2024/02/29 03:53:49;;;;;;;40.45;19.45;;;;;;;;;;4958856;28;20085;-79
2024/02/29 03:56:15;;;;;;;42.88;18.73;;;;;;;;;;4977274;28;20058;-79
2024/02/29 03:58:42;;;;;;;44.83;19.48;;;;;;;;;;4960198;28;20072;-80
2024/02/29 04:01:10;;;;;;;45.95;19.80;;;;;;;;;;4983050;28;20046;-79
2024/02/29 04:03:40;;;;;;;41.03;18.73;;;;;;;;;;4962962;28;20043;-79
2024/02/29 04:06:07;;;;;;;41.10;19.40;;;;;;;;;;4963130;29;20082;-79
2024/02/29 04:08:34;;;;;;;42.70;19.45;;;;;;;;;;4984999;28;20054;-79
2024/02/29 04:11:02;;;;;;;45.40;19.17;;;;;;;;;;4950179;29;20080;-79
2024/02/29 04:13:29;;;;;;;44.83;19.52;;;;;;;;;;4970670;28;20063;-80
2024/02/29 04:15:55;;;;;;;44.30;20.08;;;;;;;;;;4971231;29;20047;-80
2024/02/29 04:18:22;;;;;;;43.40;19.90;;;;;;;;;;4984854;28;20147;-80
2024/02/29 04:20:50;;;;;;;42.17;18.77;;;;;;;;;;4960038;28;20074;-80
2024/02/29 04:23:17;;;;;;;40.40;17.98;;;;;;;;;;4969531;28;20055;-81
2024/02/29 04:25:45;;;;;;;37.53;18.20;;;;;;;;;;4952744;28;20047;-81
2024/02/29 04:28:14;;;;;;;41.35;18.02;;;;;;;;;;4953517;28;20497;-82
2024/02/29 04:30:42;;;;;;;42.35;18.58;;;;;;;;;;4955119;28;20051;-82
2024/02/29 04:33:08;;;;;;;37.00;18.30;;;;;;;;;;4953395;28;20070;-82
2024/02/29 04:35:35;;;;;;;37.00;16.67;;;;;;;;;;4934965;29;20047;-81
2024/02/29 04:38:02;;;;;;;31.73;15.98;;;;;;;;;;4956658;28;20453;-83
2024/02/29 04:40:29;;;;;;;26.17;15.05;;;;;;;;;;4953854;29;20047;-82
2024/02/29 04:42:56;;;;;;;30.90;15.75;;;;;;;;;;4937809;29;20505;-82
2024/02/29 04:45:26;;;;;;;29.05;15.75;;;;;;;;;;4938401;28;20059;-82
2024/02/29 04:47:53;;;;;;;29.15;15.43;;;;;;;;;;4955502;28;20059;-80
2024/02/29 04:50:20;;;;;;;24.92;14.35;;;;;;;;;;4969341;28;20475;-80
2024/02/29 04:52:47;;;;;;;27.83;15.38;;;;;;;;;;4968474;28;20051;-80
2024/02/29 04:55:14;;;;;;;30.05;13.85;;;;;;;;;;4971068;28;20054;-80
2024/02/29 04:57:40;;;;;;;39.35;18.33;;;;;;;;;;4954445;28;20055;-80
2024/02/29 05:00:10;;;;;;;34.78;17.88;;;;;;;;;;4938548;29;20082;-80
2024/02/29 05:02:37;;;;;;;41.33;17.08;;;;;;;;;;4955315;28;20079;-80
2024/02/29 05:05:06;;;;;;;38.08;16.98;;;;;;;;;;4971859;28;20054;-81
2024/02/29 05:07:33;;;;;;;36.70;18.95;;;;;;;;;;4959867;28;20111;-80
2024/02/29 05:10:00;;;;;;;30.48;16.65;;;;;;;;;;4955361;28;20051;-79
2024/02/29 05:12:27;;;;;;;38.58;18.25;;;;;;;;;;4954964;29;20472;-79
2024/02/29 05:14:54;;;;;;;35.40;16.30;;;;;;;;;;4958010;28;20055;-78
2024/02/29 05:17:20;;;;;;;34.63;18.00;;;;;;;;;;4957623;29;20488;-79
2024/02/29 05:19:47;;;;;;;32.47;16.27;;;;;;;;;;4944840;28;20058;-79
2024/02/29 05:22:14;;;;;;;34.38;16.25;;;;;;;;;;4943191;29;20176;-79
2024/02/29 05:24:41;;;;;;;39.42;18.00;;;;;;;;;;4958009;28;21990;-79
2024/02/29 05:27:07;;;;;;;38.92;17.70;;;;;;;;;;4952395;29;20051;-81
2024/02/29 05:29:34;;;;;;;40.75;17.58;;;;;;;;;;4950492;28;20087;-81
2024/02/29 05:32:00;;;;;;;36.00;17.75;;;;;;;;;;4943806;28;20094;-81
2024/02/29 05:34:27;;;;;;;32.03;16.48;;;;;;;;;;4960825;28;20051;-80
2024/02/29 05:36:54;;;;;;;36.28;15.85;;;;;;;;;;4966798;28;20557;-80
2024/02/29 05:39:20;;;;;;;27.73;16.10;;;;;;;;;;4957664;28;20123;-80
2024/02/29 05:41:47;;;;;;;29.45;15.05;;;;;;;;;;4945047;28;20522;-80
2024/02/29 05:44:14;;;;;;;32.80;15.50;;;;;;;;;;4963366;28;20081;-81
2024/02/29 05:46:41;;;;;;;26.65;14.55;;;;;;;;;;4959762;28;20090;-80
2024/02/29 05:49:07;;;;;;;23.70;13.50;;;;;;;;;;4975998;28;20502;-82
2024/02/29 05:51:34;;;;;;;28.77;14.57;;;;;;;;;;4977075;28;20111;-82
2024/02/29 05:54:01;;;;;;;23.17;13.38;;;;;;;;;;4963335;28;20051;-81
2024/02/29 05:56:28;;;;;;;34.72;15.98;;;;;;;;;;4961205;28;20055;-82
2024/02/29 05:58:55;;;;;;;29.77;15.10;;;;;;;;;;4959544;28;20043;-81
2024/02/29 06:01:22;;;;;;;36.80;16.15;;;;;;;;;;4945669;29;20059;-81
2024/02/29 06:03:49;;;;;;;36.13;16.08;;;;;;;;;;4960183;28;20051;-82
2024/02/29 06:06:15;;;;;;;32.95;16.38;;;;;;;;;;4973617;28;20051;-81
2024/02/29 06:08:42;;;;;;;34.08;15.07;;;;;;;;;;4964383;28;20079;-81
2024/02/29 06:11:13;;;;;;;38.50;16.05;;;;;;;;;;4959283;29;20081;-81
2024/02/29 06:13:43;;;;;;;36.55;17.90;;;;;;;;;;4961225;28;20115;-78
2024/02/29 06:16:15;;;;;;;35.97;17.73;;;;;;;;;;4949080;29;20047;-81
2024/02/29 06:18:46;;;;;;;34.80;17.05;;;;;;;;;;4945260;29;20110;-78
2024/02/29 06:21:14;;;;;;;35.17;16.85;;;;;;;;;;4941524;29;20134;-78
2024/02/29 06:23:41;;;;;;;36.92;16.35;;;;;;;;;;4964473;28;20051;-79
2024/02/29 06:26:08;;;;;;;39.90;17.45;;;;;;;;;;4975741;28;20054;-79
2024/02/29 06:28:34;;;;;;;36.00;17.08;;;;;;;;;;4972414;28;20051;-80
2024/02/29 06:31:01;;;;;;;36.83;16.17;;;;;;;;;;4957998;28;20058;-84
2024/02/29 06:33:28;;;;;;;38.15;17.73;;;;;;;;;;4945498;29;20051;-83
2024/02/29 06:35:56;;;;;;;36.47;17.42;;;;;;;;;;4939487;29;20047;-85
2024/02/29 06:38:24;;;;;;;36.38;17.15;;;;;;;;;;4969593;28;20042;-85
2024/02/29 06:40:52;;;;;;;44.15;17.92;;;;;;;;;;4947098;29;20223;-84
2024/02/29 06:43:25;;;;;;;44.40;17.05;;;;;;;;;;4958714;28;20059;-84
2024/02/29 06:45:55;;;;;;;38.03;17.27;;;;;;;;;;4969155;28;20063;-83
2024/02/29 06:48:21;;;;;;;46.28;19.15;;;;;;;;;;4985980;28;20055;-84
2024/02/29 06:50:49;;;;;;;39.13;17.52;;;;;;;;;;4940794;29;20052;-84
2024/02/29 06:53:16;;;;;;;37.60;17.83;;;;;;;;;;4963259;29;20534;-84
2024/02/29 06:55:45;;;;;;;40.17;17.67;;;;;;;;;;4946639;29;20051;-85
2024/02/29 06:58:11;;;;;;;41.70;17.90;;;;;;;;;;4957540;28;20050;-84
2024/02/29 07:00:39;;;;;;;38.60;17.73;;;;;;;;;;4975673;28;20058;-81
2024/02/29 07:03:06;;;;;;;44.90;18.45;;;;;;;;;;4959679;28;20055;-81
2024/02/29 07:05:33;;;;;;;42.33;17.60;;;;;;;;;;4956550;28;20059;-80
2024/02/29 07:08:02;;;;;;;34.25;16.27;;;;;;;;;;4959251;28;20055;-81
2024/02/29 07:10:29;;;;;;;40.20;17.95;;;;;;;;;;4940232;29;20043;-81
2024/02/29 07:12:56;;;;;;;44.10;18.65;;;;;;;;;;4954605;28;20047;-80
2024/02/29 07:15:22;;;;;;;45.05;18.83;;;;;;;;;;4950919;28;20053;-75
2024/02/29 07:17:49;;;;;;;50.75;18.40;;;;;;;;;;4952395;28;20458;-77
2024/02/29 07:20:17;;;;;;;51.70;19.52;;;;;;;;;;4951601;28;20097;-78
2024/02/29 07:22:46;;;;;;;50.40;18.48;;;;;;;;;;4937228;29;20090;-78
2024/02/29 07:25:12;;;;;;;42.75;18.95;;;;;;;;;;4952010;28;20063;-77
2024/02/29 07:27:41;;;;;;;43.95;18.80;;;;;;;;;;4952485;28;20070;-77
2024/02/29 07:30:08;;;;;;;45.92;19.08;;;;;;;;;;4935934;28;20094;-77
2024/02/29 07:32:35;;;;;;;42.92;18.80;;;;;;;;;;4936177;29;20051;-77
2024/02/29 07:35:02;;;;;;;42.47;19.10;;;;;;;;;;4936468;28;20047;-77
2024/02/29 07:37:28;;;;;;;38.95;18.90;;;;;;;;;;4936070;29;20050;-77
2024/02/29 07:39:55;;;;;;;38.10;17.90;;;;;;;;;;4952566;28;20203;-78
2024/02/29 07:42:21;;;;;;;43.28;17.88;;;;;;;;;;4949845;28;20058;-77
2024/02/29 07:44:48;;;;;;;42.17;19.13;;;;;;;;;;4956341;28;20055;-76
2024/02/29 07:47:15;;;;;;;40.08;17.88;;;;;;;;;;4954653;28;20055;-78
2024/02/29 07:49:41;;;;;;;44.33;20.00;;;;;;;;;;4957620;28;20051;-80
2024/02/29 07:52:08;;;;;;;43.42;20.40;;;;;;;;;;4947057;28;20114;-76
2024/02/29 07:54:35;;;;;;;45.83;20.83;;;;;;;;;;4951610;28;20395;-74
2024/02/29 07:57:01;;;;;;;41.75;20.30;;;;;;;;;;4949728;28;20075;-76
2024/02/29 07:59:28;;;;;;;49.47;20.52;;;;;;;;;;4950544;28;20395;-78
2024/02/29 08:01:55;;;;;;;47.00;20.65;;;;;;;;;;4952803;28;20122;-76
2024/02/29 08:04:21;;;;;;;44.75;21.45;;;;;;;;;;4935530;29;20075;-77
2024/02/29 08:06:48;;;;;;;47.60;22.67;;;;;;;;;;4951705;28;20469;-77
2024/02/29 08:09:15;;;;;;;47.67;22.35;;;;;;;;;;4943364;28;20470;-77
2024/02/29 08:11:41;;;;;;;53.90;24.75;;;;;;;;;;4951518;28;20121;-78
2024/02/29 08:14:08;;;;;;;49.97;22.08;;;;;;;;;;4954241;28;20051;-80
2024/02/29 08:16:35;;;;;;;47.45;22.20;;;;;;;;;;4954575;28;20054;-78
2024/02/29 08:19:02;;;;;;;43.83;21.10;;;;;;;;;;4969479;28;20060;-83
2024/02/29 08:21:32;;;;;;;44.60;23.00;;;;;;;;;;4960547;28;20053;-83
2024/02/29 08:24:01;;;;;;;45.90;22.25;;;;;;;;;;4960875;28;20059;-80
2024/02/29 08:26:28;;;;;;;50.50;22.35;;;;;;;;;;4940101;29;20098;-84
2024/02/29 08:28:55;;;;;;;49.97;22.13;;;;;;;;;;4956013;28;20523;-77
2024/02/29 08:31:21;;;;;;;45.38;21.23;;;;;;;;;;4957436;28;20047;-76
2024/02/29 08:33:49;;;;;;;44.63;20.50;;;;;;;;;;4955497;28;20058;-77
2024/02/29 08:36:16;;;;;;;38.83;19.92;;;;;;;;;;4954249;28;20075;-78
2024/02/29 08:38:42;;;;;;;37.53;20.23;;;;;;;;;;4958620;28;20065;-79
2024/02/29 08:41:09;;;;;;;33.83;18.63;;;;;;;;;;4935942;29;20051;-80
2024/02/29 08:43:40;;;;;;;38.08;19.90;;;;;;;;;;4972528;28;20204;-78
2024/02/29 08:46:08;;;;;;;41.08;20.60;;;;;;;;;;4947101;28;20071;-78
2024/02/29 08:48:38;;;;;;;36.55;18.63;;;;;;;;;;4937717;28;20051;-79
2024/02/29 08:51:05;;;;;;;40.35;19.10;;;;;;;;;;4941494;28;20107;-78
2024/02/29 08:53:32;;;;;;;38.45;19.05;;;;;;;;;;4949357;28;20082;-77
2024/02/29 08:55:58;;;;;;;36.67;18.58;;;;;;;;;;4953550;28;20102;-80
2024/02/29 08:58:25;;;;;;;35.05;18.58;;;;;;;;;;4942943;29;20054;-79
2024/02/29 09:00:52;;;;;;;40.55;20.02;;;;;;;;;;4957944;28;20055;-78
2024/02/29 09:03:19;;;;;;;33.97;17.83;;;;;;;;;;4943305;29;20052;-79
2024/02/29 09:05:46;;;;;;;37.55;18.60;;;;;;;;;;4941451;28;20076;-82
2024/02/29 09:08:12;;;;;;;30.65;17.63;;;;;;;;;;4952668;29;20113;-79
2024/02/29 09:10:39;;;;;;;33.30;18.13;;;;;;;;;;4946976;28;20062;-80
2024/02/29 09:13:06;;;;;;;34.08;17.73;;;;;;;;;;4973487;28;20078;-80
2024/02/29 09:15:52;;;;;;;33.92;18.15;;;;;;;;;;4956236;28;20138;-78
2024/02/29 09:18:20;;;;;;;30.58;17.38;;;;;;;;;;4976261;28;20469;-80
2024/02/29 09:20:46;;;;;;;36.83;19.65;;;;;;;;;;4958970;28;20494;-79
2024/02/29 09:23:13;;;;;;;35.40;18.15;;;;;;;;;;4957924;28;20055;-80
2024/02/29 09:25:40;;;;;;;33.65;17.35;;;;;;;;;;4943102;29;20087;-79
2024/02/29 09:28:07;;;;;;;34.38;17.17;;;;;;;;;;4941744;28;20061;-79
2024/02/29 09:30:33;;;;;;;33.53;18.27;;;;;;;;;;4942112;29;20059;-78
2024/02/29 09:33:00;;;;;;;40.67;17.58;;;;;;;;;;4941757;28;20086;-80
2024/02/29 09:35:27;;;;;;;34.72;18.02;;;;;;;;;;4941860;29;20082;-79
2024/02/29 09:37:54;;;;;;;36.92;19.45;;;;;;;;;;4940305;28;20082;-79
2024/02/29 09:40:20;;;;;;;34.33;19.15;;;;;;;;;;4957512;28;20051;-80
2024/02/29 09:42:47;;;;;;;32.72;17.35;;;;;;;;;;4957785;28;20138;-80
2024/02/29 09:45:14;;;;;;;30.92;16.85;;;;;;;;;;4978857;28;20059;-80
2024/02/29 09:47:41;;;;;;;33.85;16.98;;;;;;;;;;4941484;29;20058;-79
2024/02/29 09:50:08;;;;;;;31.95;18.15;;;;;;;;;;4969165;28;20526;-79
2024/02/29 09:52:36;;;;;;;35.97;19.00;;;;;;;;;;4957967;28;20050;-83
2024/02/29 09:55:04;;;;;;;30.45;17.63;;;;;;;;;;4942624;28;20078;-80
2024/02/29 09:57:34;;;;;;;29.77;15.52;;;;;;;;;;4941433;29;20047;-80
2024/02/29 10:00:02;;;;;;;33.92;18.20;;;;;;;;;;4940309;28;20510;-81
2024/02/29 10:02:29;;;;;;;36.00;18.83;;;;;;;;;;4957746;28;20074;-80
2024/02/29 10:04:56;;;;;;;31.58;17.85;;;;;;;;;;4958421;28;20043;-80
2024/02/29 10:07:23;;;;;;;31.05;17.15;;;;;;;;;;4955373;28;20059;-80
2024/02/29 10:09:50;;;;;;;32.88;16.90;;;;;;;;;;4973403;28;20051;-80
2024/02/29 10:12:18;;;;;;;30.13;18.25;;;;;;;;;;4956631;28;20079;-79
2024/02/29 10:14:59;;;;;;;32.88;16.88;;;;;;;;;;4959815;28;20062;-79
2024/02/29 10:17:31;;;;;;;34.50;18.70;;;;;;;;;;4948420;28;20059;-78
2024/02/29 10:19:58;;;;;;;36.55;19.17;;;;;;;;;;4962526;28;20093;-79
2024/02/29 10:22:24;;;;;;;30.30;16.92;;;;;;;;;;4946627;29;20075;-80
2024/02/29 10:24:52;;;;;;;31.20;17.73;;;;;;;;;;4947390;29;20110;-80
2024/02/29 10:27:19;;;;;;;31.20;17.80;;;;;;;;;;4962421;28;20082;-80
2024/02/29 10:29:48;;;;;;;30.95;17.73;;;;;;;;;;4962885;28;20058;-80
2024/02/29 10:32:15;;;;;;;33.42;18.50;;;;;;;;;;4962714;28;20051;-80
2024/02/29 10:34:42;;;;;;;30.83;18.77;;;;;;;;;;4941915;28;20051;-81
2024/02/29 10:37:08;;;;;;;30.02;17.05;;;;;;;;;;4966421;28;20446;-80
2024/02/29 10:39:38;;;;;;;33.47;17.90;;;;;;;;;;4940208;28;20442;-80
2024/02/29 10:42:05;;;;;;;33.55;17.30;;;;;;;;;;4937470;29;20078;-80
2024/02/29 10:44:33;;;;;;;29.63;16.05;;;;;;;;;;4939559;28;20517;-81
2024/02/29 10:47:02;;;;;;;31.33;16.83;;;;;;;;;;4938947;29;20051;-80
2024/02/29 10:49:38;;;;;;;33.72;18.85;;;;;;;;;;4935599;29;20075;-80
2024/02/29 10:52:12;;;;;;;34.25;19.13;;;;;;;;;;4951263;28;20104;-79
2024/02/29 10:54:46;;;;;;;32.80;17.30;;;;;;;;;;4939392;29;20067;-79
2024/02/29 10:57:14;;;;;;;31.70;17.13;;;;;;;;;;4963457;28;20047;-79
2024/02/29 10:59:41;;;;;;;32.55;17.92;;;;;;;;;;4954936;28;20055;-79
2024/02/29 11:02:08;;;;;;;31.48;17.65;;;;;;;;;;4954065;28;20063;-78
2024/02/29 11:04:35;;;;;;;29.10;16.40;;;;;;;;;;4972703;28;20047;-78
2024/02/29 11:07:01;;;;;;;29.45;16.42;;;;;;;;;;4956369;28;20525;-79
2024/02/29 11:09:28;;;;;;;26.58;15.23;;;;;;;;;;4939530;28;20457;-79
2024/02/29 11:12:15;;;;;;;29.92;15.77;;;;;;;;;;4939004;29;20078;-80
2024/02/29 11:14:43;;;;;;;35.38;18.70;;;;;;;;;;4956125;28;20054;-79
2024/02/29 11:17:12;;;;;;;31.92;16.55;;;;;;;;;;4936286;28;20070;-79
2024/02/29 11:19:38;;;;;;;29.83;17.67;;;;;;;;;;4963226;28;20047;-78
2024/02/29 11:22:17;;;;;;;28.73;15.73;;;;;;;;;;4956795;28;20421;-77
2024/02/29 11:24:44;;;;;;;29.30;16.38;;;;;;;;;;4936287;29;20501;-77
2024/02/29 11:27:11;;;;;;;28.10;16.50;;;;;;;;;;4936793;28;20048;-77
2024/02/29 11:29:39;;;;;;;28.85;16.27;;;;;;;;;;4936146;29;20446;-77
2024/02/29 11:32:06;;;;;;;28.48;16.60;;;;;;;;;;4951607;28;20134;-77
2024/02/29 11:34:35;;;;;;;31.30;16.92;;;;;;;;;;4934603;28;20099;-77
2024/02/29 11:37:01;;;;;;;29.40;16.45;;;;;;;;;;4934604;29;20051;-75
2024/02/29 11:39:28;;;;;;;27.52;16.67;;;;;;;;;;4933726;28;20051;-77
2024/02/29 11:42:01;;;;;;;29.42;16.67;;;;;;;;;;4950492;28;20446;-77
2024/02/29 11:44:28;;;;;;;;;;;;;;;;;;4974069;28;20082;-79
2024/02/29 11:46:54;;;;;;;25.83;14.00;;;;;;;;;;4953724;28;19958;-77
2024/02/29 11:49:23;;;;;;;27.30;14.95;;;;;;;;;;4953035;28;20129;-78
2024/02/29 11:51:50;;;;;;;27.63;14.60;;;;;;;;;;4955103;28;20110;-77
2024/02/29 11:54:17;;;;;;;26.00;15.45;;;;;;;;;;4951180;28;20513;-77
2024/02/29 11:56:44;;;;;;;22.48;13.85;;;;;;;;;;4933657;29;20051;-77
2024/02/29 11:59:13;;;;;;;21.73;12.73;;;;;;;;;;4933311;29;20047;-77
2024/02/29 12:01:43;;;;;;;20.15;12.93;;;;;;;;;;4950270;28;20131;-77
2024/02/29 12:04:10;;;;;;;24.35;13.75;;;;;;;;;;4950548;28;20051;-77
2024/02/29 12:06:37;;;;;;;22.75;13.55;;;;;;;;;;4952063;28;20090;-79
2024/02/29 12:09:06;;;;;;;20.88;12.75;;;;;;;;;;4962090;28;20079;-79
2024/02/29 12:11:33;;;;;;;23.42;12.15;;;;;;;;;;4939686;28;20095;-78
2024/02/29 12:14:00;;;;;;;23.65;12.73;;;;;;;;;;4942283;29;20506;-80
2024/02/29 12:16:29;;;;;;;18.27;11.73;;;;;;;;;;4938428;28;20059;-81
2024/02/29 12:18:55;;;;;;;20.40;13.30;;;;;;;;;;4938124;29;20055;-80
2024/02/29 12:21:24;;;;;;;24.13;13.25;;;;;;;;;;4938227;29;20070;-81
2024/02/29 12:23:51;;;;;;;25.02;13.05;;;;;;;;;;4941145;28;20460;-81
2024/02/29 12:26:20;;;;;;;21.50;11.88;;;;;;;;;;4962379;28;20086;-80
2024/02/29 12:28:50;;;;;;;19.40;11.20;;;;;;;;;;4974661;28;20059;-79
2024/02/29 12:31:17;;;;;;;18.95;12.35;;;;;;;;;;4942397;29;20083;-80
2024/02/29 12:33:46;;;;;;;20.08;12.93;;;;;;;;;;4932283;28;20561;-78
2024/02/29 12:36:15;;;;;;;19.52;11.80;;;;;;;;;;4960450;28;20051;-80
2024/02/29 12:38:44;;;;;;;20.33;11.80;;;;;;;;;;4947152;28;20047;-81
2024/02/29 12:41:11;;;;;;;19.67;11.50;;;;;;;;;;4945702;29;20055;-79
2024/02/29 12:43:44;;;;;;;18.00;11.68;;;;;;;;;;4957957;28;20355;-78
2024/02/29 12:46:11;;;;;;;18.80;10.50;;;;;;;;;;4961820;28;20121;-78
2024/02/29 12:48:38;;;;;;;17.70;11.18;;;;;;;;;;4942035;29;20062;-77
2024/02/29 12:51:05;;;;;;;17.98;11.15;;;;;;;;;;4958316;28;20063;-77
2024/02/29 12:53:33;;;;;;;16.67;10.13;;;;;;;;;;4957240;28;20077;-76
2024/02/29 12:56:00;;;;;;;16.52;9.68;;;;;;;;;;4953181;28;20143;-76
2024/02/29 12:58:27;;;;;;;16.27;9.73;;;;;;;;;;4953882;28;20051;-76
2024/02/29 13:00:54;;;;;;;16.23;10.05;;;;;;;;;;4937087;28;20052;-76
2024/02/29 13:03:20;;;;;;;15.73;9.40;;;;;;;;;;4953907;28;20055;-77
2024/02/29 13:05:47;;;;;;;14.23;8.13;;;;;;;;;;4953182;28;20122;-74
2024/02/29 13:08:14;;;;;;;12.20;8.35;;;;;;;;;;4954771;28;20101;-74
2024/02/29 13:10:41;;;;;;;13.40;9.00;;;;;;;;;;4937353;29;20494;-75
2024/02/29 13:13:07;;;;;;;14.20;9.00;;;;;;;;;;4953853;28;20533;-74
2024/02/29 13:15:36;;;;;;;13.60;9.30;;;;;;;;;;4952195;28;20047;-74
2024/02/29 13:18:03;;;;;;;14.63;9.88;;;;;;;;;;4969310;28;20059;-74
2024/02/29 13:20:30;;;;;;;14.27;9.32;;;;;;;;;;4954128;28;20047;-75
2024/02/29 13:22:58;;;;;;;15.48;9.38;;;;;;;;;;4937447;28;20059;-75
2024/02/29 13:25:24;;;;;;;14.75;9.75;;;;;;;;;;4952646;28;20050;-74
2024/02/29 13:27:52;;;;;;;14.52;9.30;;;;;;;;;;4951880;28;20055;-75
2024/02/29 13:30:18;;;;;;;14.40;8.60;;;;;;;;;;4973321;28;20133;-79
2024/02/29 13:32:45;;;;;;;15.18;9.13;;;;;;;;;;4938138;28;20502;-77
2024/02/29 13:35:12;;;;;;;14.23;8.57;;;;;;;;;;4952150;28;20058;-76
2024/02/29 13:37:38;;;;;;;12.98;8.13;;;;;;;;;;4952702;28;20051;-74
2024/02/29 13:40:06;;;;;;;14.18;9.15;;;;;;;;;;4937554;29;20492;-75
2024/02/29 13:42:32;;;;;;;13.98;8.48;;;;;;;;;;4952858;28;20119;-75
2024/02/29 13:44:59;;;;;;;14.45;8.63;;;;;;;;;;4952954;28;20051;-75
2024/02/29 13:47:26;;;;;;;12.75;8.35;;;;;;;;;;4952868;28;20055;-74
2024/02/29 13:49:53;;;;;;;14.32;9.13;;;;;;;;;;4952840;28;20171;-74
2024/02/29 13:52:23;;;;;;;15.48;7.65;;;;;;;;;;4975843;28;20051;-74
2024/02/29 13:54:56;;;;;;;11.55;7.50;;;;;;;;;;4949446;28;20051;-74
2024/02/29 13:57:23;;;;;;;12.18;7.30;;;;;;;;;;4955768;28;20059;-74
2024/02/29 13:59:50;;;;;;;11.60;7.85;;;;;;;;;;4951830;28;20070;-73
2024/02/29 14:02:17;;;;;;;12.82;7.47;;;;;;;;;;4934993;29;20055;-74
2024/02/29 14:04:44;;;;;;;14.20;7.93;;;;;;;;;;4954134;28;20132;-74
2024/02/29 14:07:12;;;;;;;10.68;6.82;;;;;;;;;;4952948;28;20051;-75
2024/02/29 14:09:39;;;;;;;11.35;7.63;;;;;;;;;;4952279;28;20055;-74
2024/02/29 14:12:09;;;;;;;11.55;7.57;;;;;;;;;;4952102;28;20058;-74
2024/02/29 14:14:36;;;;;;;11.90;8.02;;;;;;;;;;4952371;28;20449;-74
2024/02/29 14:17:03;;;;;;;12.70;7.60;;;;;;;;;;4966748;28;20059;-75
2024/02/29 14:19:32;;;;;;;11.50;7.72;;;;;;;;;;4951889;28;20477;-75